sensor_id;sensor_type;location;lat;lon;timestamp;P1;durP1;ratioP1;P2;durP2;ratioP2
34134;SDS011;20410;55.578;12.968;2022-07-03T00:01:41;3.60;;;1.83;;
34134;SDS011;20410;55.578;12.968;2022-07-03T00:04:06;3.38;;;2.00;;
34134;SDS011;20410;55.578;12.968;2022-07-03T00:06:32;3.88;;;2.00;;
34134;SDS011;20410;55.578;12.968;2022-07-03T00:08:59;4.05;;;1.98;;
34134;SDS011;20410;55.578;12.968;2022-07-03T00:11:25;2.58;;;1.70;;
34134;SDS011;20410;55.578;12.968;2022-07-03T00:13:51;4.18;;;1.90;;
34134;SDS011;20410;55.578;12.968;2022-07-03T00:16:17;4.47;;;2.15;;
34134;SDS011;20410;55.578;12.968;2022-07-03T00:18:43;2.45;;;1.70;;
34134;SDS011;20410;55.578;12.968;2022-07-03T00:21:09;2.65;;;1.80;;
34134;SDS011;20410;55.578;12.968;2022-07-03T00:26:19;5.53;;;2.20;;
34134;SDS011;20410;55.578;12.968;2022-07-03T00:28:46;4.88;;;1.88;;
34134;SDS011;20410;55.578;12.968;2022-07-03T00:31:12;3.97;;;2.20;;
34134;SDS011;20410;55.578;12.968;2022-07-03T00:33:38;5.03;;;2.00;;
34134;SDS011;20410;55.578;12.968;2022-07-03T00:36:04;4.00;;;1.90;;
34134;SDS011;20410;55.578;12.968;2022-07-03T00:38:30;4.45;;;2.20;;
34134;SDS011;20410;55.578;12.968;2022-07-03T00:40:56;4.10;;;2.08;;
34134;SDS011;20410;55.578;12.968;2022-07-03T00:43:22;5.35;;;1.98;;
34134;SDS011;20410;55.578;12.968;2022-07-03T00:45:50;4.97;;;2.20;;
34134;SDS011;20410;55.578;12.968;2022-07-03T00:48:17;3.78;;;1.90;;
34134;SDS011;20410;55.578;12.968;2022-07-03T00:50:48;4.70;;;2.25;;
34134;SDS011;20410;55.578;12.968;2022-07-03T00:53:21;4.15;;;2.20;;
34134;SDS011;20410;55.578;12.968;2022-07-03T00:55:53;4.85;;;2.30;;
34134;SDS011;20410;55.578;12.968;2022-07-03T00:58:20;5.38;;;2.33;;
34134;SDS011;20410;55.578;12.968;2022-07-03T01:00:46;7.85;;;2.47;;
34134;SDS011;20410;55.578;12.968;2022-07-03T01:03:16;5.95;;;2.45;;
34134;SDS011;20410;55.578;12.968;2022-07-03T01:05:43;4.50;;;2.30;;
34134;SDS011;20410;55.578;12.968;2022-07-03T01:11:20;6.78;;;2.83;;
34134;SDS011;20410;55.578;12.968;2022-07-03T01:14:27;4.95;;;2.70;;
34134;SDS011;20410;55.578;12.968;2022-07-03T01:19:36;4.88;;;3.05;;
34134;SDS011;20410;55.578;12.968;2022-07-03T01:25:00;7.10;;;3.93;;
34134;SDS011;20410;55.578;12.968;2022-07-03T01:30:27;5.90;;;3.50;;
34134;SDS011;20410;55.578;12.968;2022-07-03T01:33:04;5.35;;;3.22;;
34134;SDS011;20410;55.578;12.968;2022-07-03T01:35:36;7.40;;;3.55;;
34134;SDS011;20410;55.578;12.968;2022-07-03T01:38:11;5.43;;;3.70;;
34134;SDS011;20410;55.578;12.968;2022-07-03T01:40:39;5.22;;;3.70;;
34134;SDS011;20410;55.578;12.968;2022-07-03T01:43:07;6.15;;;3.45;;
34134;SDS011;20410;55.578;12.968;2022-07-03T01:45:43;5.70;;;3.77;;
34134;SDS011;20410;55.578;12.968;2022-07-03T01:48:12;6.68;;;3.80;;
34134;SDS011;20410;55.578;12.968;2022-07-03T01:50:38;6.45;;;3.47;;
34134;SDS011;20410;55.578;12.968;2022-07-03T01:53:07;7.07;;;3.85;;
34134;SDS011;20410;55.578;12.968;2022-07-03T01:55:34;6.78;;;3.83;;
34134;SDS011;20410;55.578;12.968;2022-07-03T01:58:02;7.72;;;3.72;;
34134;SDS011;20410;55.578;12.968;2022-07-03T02:00:28;9.00;;;3.72;;
34134;SDS011;20410;55.578;12.968;2022-07-03T02:02:58;6.38;;;4.10;;
34134;SDS011;20410;55.578;12.968;2022-07-03T02:05:33;6.27;;;3.83;;
34134;SDS011;20410;55.578;12.968;2022-07-03T02:08:27;6.57;;;3.80;;
34134;SDS011;20410;55.578;12.968;2022-07-03T02:11:13;5.75;;;3.70;;
34134;SDS011;20410;55.578;12.968;2022-07-03T02:16:21;7.15;;;3.70;;
34134;SDS011;20410;55.578;12.968;2022-07-03T02:18:56;7.75;;;3.65;;
34134;SDS011;20410;55.578;12.968;2022-07-03T02:21:28;5.25;;;2.90;;
34134;SDS011;20410;55.578;12.968;2022-07-03T02:24:01;4.68;;;3.05;;
34134;SDS011;20410;55.578;12.968;2022-07-03T02:26:38;8.57;;;3.20;;
34134;SDS011;20410;55.578;12.968;2022-07-03T02:29:06;7.15;;;3.08;;
34134;SDS011;20410;55.578;12.968;2022-07-03T02:31:37;8.10;;;3.17;;
34134;SDS011;20410;55.578;12.968;2022-07-03T02:34:07;5.00;;;3.00;;
34134;SDS011;20410;55.578;12.968;2022-07-03T02:36:38;5.82;;;3.15;;
34134;SDS011;20410;55.578;12.968;2022-07-03T02:39:08;7.72;;;3.05;;
34134;SDS011;20410;55.578;12.968;2022-07-03T02:44:25;5.68;;;3.03;;
34134;SDS011;20410;55.578;12.968;2022-07-03T02:46:54;8.07;;;2.92;;
34134;SDS011;20410;55.578;12.968;2022-07-03T02:49:42;7.30;;;2.80;;
34134;SDS011;20410;55.578;12.968;2022-07-03T02:52:52;7.53;;;2.78;;
34134;SDS011;20410;55.578;12.968;2022-07-03T02:55:45;5.55;;;2.30;;
34134;SDS011;20410;55.578;12.968;2022-07-03T03:07:17;5.95;;;2.20;;
34134;SDS011;20410;55.578;12.968;2022-07-03T03:09:47;5.47;;;2.05;;
34134;SDS011;20410;55.578;12.968;2022-07-03T03:12:13;5.10;;;1.95;;
34134;SDS011;20410;55.578;12.968;2022-07-03T03:14:41;4.53;;;2.08;;
34134;SDS011;20410;55.578;12.968;2022-07-03T03:17:16;6.25;;;2.00;;
34134;SDS011;20410;55.578;12.968;2022-07-03T03:19:45;5.13;;;1.90;;
34134;SDS011;20410;55.578;12.968;2022-07-03T03:22:28;3.63;;;1.75;;
34134;SDS011;20410;55.578;12.968;2022-07-03T03:24:58;2.97;;;1.70;;
34134;SDS011;20410;55.578;12.968;2022-07-03T03:27:25;3.65;;;1.90;;
34134;SDS011;20410;55.578;12.968;2022-07-03T03:29:52;3.30;;;1.90;;
34134;SDS011;20410;55.578;12.968;2022-07-03T03:32:17;4.07;;;1.70;;
34134;SDS011;20410;55.578;12.968;2022-07-03T03:34:45;4.38;;;2.00;;
34134;SDS011;20410;55.578;12.968;2022-07-03T03:37:11;4.68;;;2.10;;
34134;SDS011;20410;55.578;12.968;2022-07-03T03:39:37;4.82;;;2.35;;
34134;SDS011;20410;55.578;12.968;2022-07-03T03:42:03;3.38;;;1.80;;
34134;SDS011;20410;55.578;12.968;2022-07-03T03:44:29;5.63;;;1.92;;
34134;SDS011;20410;55.578;12.968;2022-07-03T03:46:55;4.95;;;1.90;;
34134;SDS011;20410;55.578;12.968;2022-07-03T03:49:21;3.80;;;1.92;;
34134;SDS011;20410;55.578;12.968;2022-07-03T03:51:47;5.75;;;1.88;;
34134;SDS011;20410;55.578;12.968;2022-07-03T03:54:13;2.95;;;1.80;;
34134;SDS011;20410;55.578;12.968;2022-07-03T03:56:38;3.65;;;1.92;;
34134;SDS011;20410;55.578;12.968;2022-07-03T03:59:04;4.97;;;1.70;;
34134;SDS011;20410;55.578;12.968;2022-07-03T04:01:30;7.60;;;2.15;;
34134;SDS011;20410;55.578;12.968;2022-07-03T04:03:55;5.72;;;2.00;;
34134;SDS011;20410;55.578;12.968;2022-07-03T04:06:21;3.92;;;1.77;;
34134;SDS011;20410;55.578;12.968;2022-07-03T04:08:47;6.20;;;2.00;;
34134;SDS011;20410;55.578;12.968;2022-07-03T04:11:12;5.03;;;1.88;;
34134;SDS011;20410;55.578;12.968;2022-07-03T04:13:38;5.10;;;2.10;;
34134;SDS011;20410;55.578;12.968;2022-07-03T04:16:03;2.92;;;1.70;;
34134;SDS011;20410;55.578;12.968;2022-07-03T04:18:29;4.32;;;2.10;;
34134;SDS011;20410;55.578;12.968;2022-07-03T04:20:55;4.63;;;2.00;;
34134;SDS011;20410;55.578;12.968;2022-07-03T04:23:20;3.08;;;1.90;;
34134;SDS011;20410;55.578;12.968;2022-07-03T04:25:46;5.30;;;2.00;;
34134;SDS011;20410;55.578;12.968;2022-07-03T04:28:12;6.97;;;2.10;;
34134;SDS011;20410;55.578;12.968;2022-07-03T04:30:37;4.80;;;2.10;;
34134;SDS011;20410;55.578;12.968;2022-07-03T04:33:03;5.65;;;2.28;;
34134;SDS011;20410;55.578;12.968;2022-07-03T04:35:29;9.15;;;2.45;;
34134;SDS011;20410;55.578;12.968;2022-07-03T04:37:54;5.20;;;2.10;;
34134;SDS011;20410;55.578;12.968;2022-07-03T04:40:20;5.53;;;2.22;;
34134;SDS011;20410;55.578;12.968;2022-07-03T04:42:46;4.35;;;2.30;;
34134;SDS011;20410;55.578;12.968;2022-07-03T04:45:11;4.45;;;2.17;;
34134;SDS011;20410;55.578;12.968;2022-07-03T04:47:37;5.90;;;2.67;;
34134;SDS011;20410;55.578;12.968;2022-07-03T04:50:03;4.38;;;2.30;;
34134;SDS011;20410;55.578;12.968;2022-07-03T04:52:28;5.82;;;2.50;;
34134;SDS011;20410;55.578;12.968;2022-07-03T04:54:54;5.40;;;2.35;;
34134;SDS011;20410;55.578;12.968;2022-07-03T04:57:19;7.55;;;2.63;;
34134;SDS011;20410;55.578;12.968;2022-07-03T04:59:45;5.95;;;2.67;;
34134;SDS011;20410;55.578;12.968;2022-07-03T05:02:11;5.68;;;2.53;;
34134;SDS011;20410;55.578;12.968;2022-07-03T05:04:37;6.88;;;2.70;;
34134;SDS011;20410;55.578;12.968;2022-07-03T05:07:02;5.45;;;2.78;;
34134;SDS011;20410;55.578;12.968;2022-07-03T05:09:28;5.38;;;2.42;;
34134;SDS011;20410;55.578;12.968;2022-07-03T05:11:54;5.75;;;2.72;;
34134;SDS011;20410;55.578;12.968;2022-07-03T05:14:20;5.80;;;3.00;;
34134;SDS011;20410;55.578;12.968;2022-07-03T05:16:45;8.10;;;3.00;;
34134;SDS011;20410;55.578;12.968;2022-07-03T05:19:11;6.15;;;2.78;;
34134;SDS011;20410;55.578;12.968;2022-07-03T05:21:36;5.25;;;2.85;;
34134;SDS011;20410;55.578;12.968;2022-07-03T05:24:02;5.78;;;2.83;;
34134;SDS011;20410;55.578;12.968;2022-07-03T05:26:28;6.85;;;3.05;;
34134;SDS011;20410;55.578;12.968;2022-07-03T05:28:53;4.13;;;2.67;;
34134;SDS011;20410;55.578;12.968;2022-07-03T05:31:19;4.53;;;2.88;;
34134;SDS011;20410;55.578;12.968;2022-07-03T05:33:45;3.85;;;2.55;;
34134;SDS011;20410;55.578;12.968;2022-07-03T05:36:10;8.15;;;3.13;;
34134;SDS011;20410;55.578;12.968;2022-07-03T05:38:36;5.50;;;3.08;;
34134;SDS011;20410;55.578;12.968;2022-07-03T05:41:20;5.45;;;3.00;;
34134;SDS011;20410;55.578;12.968;2022-07-03T05:43:45;4.30;;;2.85;;
34134;SDS011;20410;55.578;12.968;2022-07-03T05:46:11;8.13;;;3.00;;
34134;SDS011;20410;55.578;12.968;2022-07-03T05:48:37;7.38;;;3.30;;
34134;SDS011;20410;55.578;12.968;2022-07-03T05:51:02;6.38;;;2.90;;
34134;SDS011;20410;55.578;12.968;2022-07-03T05:53:28;8.82;;;3.30;;
34134;SDS011;20410;55.578;12.968;2022-07-03T05:55:54;5.32;;;3.20;;
34134;SDS011;20410;55.578;12.968;2022-07-03T05:58:19;6.45;;;2.95;;
34134;SDS011;20410;55.578;12.968;2022-07-03T06:00:45;6.13;;;3.20;;
34134;SDS011;20410;55.578;12.968;2022-07-03T06:03:11;8.55;;;3.20;;
34134;SDS011;20410;55.578;12.968;2022-07-03T06:05:36;7.30;;;3.30;;
34134;SDS011;20410;55.578;12.968;2022-07-03T06:08:03;6.25;;;3.00;;
34134;SDS011;20410;55.578;12.968;2022-07-03T06:10:29;4.85;;;2.90;;
34134;SDS011;20410;55.578;12.968;2022-07-03T06:12:55;5.07;;;3.03;;
34134;SDS011;20410;55.578;12.968;2022-07-03T06:15:21;5.63;;;3.00;;
34134;SDS011;20410;55.578;12.968;2022-07-03T06:17:46;5.75;;;3.30;;
34134;SDS011;20410;55.578;12.968;2022-07-03T06:20:12;5.75;;;3.15;;
34134;SDS011;20410;55.578;12.968;2022-07-03T06:22:38;4.88;;;3.17;;
34134;SDS011;20410;55.578;12.968;2022-07-03T06:25:05;4.40;;;3.20;;
34134;SDS011;20410;55.578;12.968;2022-07-03T06:27:30;5.38;;;3.08;;
34134;SDS011;20410;55.578;12.968;2022-07-03T06:29:56;9.18;;;3.15;;
34134;SDS011;20410;55.578;12.968;2022-07-03T06:32:22;4.93;;;2.88;;
34134;SDS011;20410;55.578;12.968;2022-07-03T06:34:47;5.03;;;3.15;;
34134;SDS011;20410;55.578;12.968;2022-07-03T06:37:13;5.40;;;3.20;;
34134;SDS011;20410;55.578;12.968;2022-07-03T06:39:39;4.22;;;3.03;;
34134;SDS011;20410;55.578;12.968;2022-07-03T06:42:05;6.18;;;3.10;;
34134;SDS011;20410;55.578;12.968;2022-07-03T06:44:31;4.75;;;3.00;;
34134;SDS011;20410;55.578;12.968;2022-07-03T06:46:56;3.33;;;3.03;;
34134;SDS011;20410;55.578;12.968;2022-07-03T06:49:22;4.63;;;2.92;;
34134;SDS011;20410;55.578;12.968;2022-07-03T06:51:48;5.65;;;3.20;;
34134;SDS011;20410;55.578;12.968;2022-07-03T06:54:14;5.32;;;3.08;;
34134;SDS011;20410;55.578;12.968;2022-07-03T06:56:40;4.28;;;2.90;;
34134;SDS011;20410;55.578;12.968;2022-07-03T06:59:07;6.07;;;2.88;;
34134;SDS011;20410;55.578;12.968;2022-07-03T07:01:33;6.25;;;3.00;;
34134;SDS011;20410;55.578;12.968;2022-07-03T07:03:58;6.88;;;2.95;;
34134;SDS011;20410;55.578;12.968;2022-07-03T07:06:24;4.32;;;2.97;;
34134;SDS011;20410;55.578;12.968;2022-07-03T07:08:49;4.40;;;2.67;;
34134;SDS011;20410;55.578;12.968;2022-07-03T07:11:15;3.45;;;2.58;;
34134;SDS011;20410;55.578;12.968;2022-07-03T07:13:41;4.68;;;3.10;;
34134;SDS011;20410;55.578;12.968;2022-07-03T07:16:06;4.07;;;2.90;;
34134;SDS011;20410;55.578;12.968;2022-07-03T07:18:32;5.55;;;3.35;;
34134;SDS011;20410;55.578;12.968;2022-07-03T07:20:59;4.63;;;3.03;;
34134;SDS011;20410;55.578;12.968;2022-07-03T07:23:25;4.85;;;2.80;;
34134;SDS011;20410;55.578;12.968;2022-07-03T07:25:50;4.57;;;2.95;;
34134;SDS011;20410;55.578;12.968;2022-07-03T07:28:16;5.65;;;2.70;;
34134;SDS011;20410;55.578;12.968;2022-07-03T07:30:42;4.43;;;2.97;;
34134;SDS011;20410;55.578;12.968;2022-07-03T07:33:07;4.82;;;3.10;;
34134;SDS011;20410;55.578;12.968;2022-07-03T07:35:34;3.42;;;2.90;;
34134;SDS011;20410;55.578;12.968;2022-07-03T07:37:59;5.80;;;3.20;;
34134;SDS011;20410;55.578;12.968;2022-07-03T07:40:25;7.22;;;3.10;;
34134;SDS011;20410;55.578;12.968;2022-07-03T07:42:50;6.05;;;2.97;;
34134;SDS011;20410;55.578;12.968;2022-07-03T07:45:16;4.65;;;2.80;;
34134;SDS011;20410;55.578;12.968;2022-07-03T07:47:42;3.45;;;2.85;;
34134;SDS011;20410;55.578;12.968;2022-07-03T07:50:07;4.85;;;3.10;;
34134;SDS011;20410;55.578;12.968;2022-07-03T07:52:33;3.53;;;2.80;;
34134;SDS011;20410;55.578;12.968;2022-07-03T07:54:59;4.70;;;2.72;;
34134;SDS011;20410;55.578;12.968;2022-07-03T07:57:24;4.60;;;3.00;;
34134;SDS011;20410;55.578;12.968;2022-07-03T07:59:51;5.10;;;2.75;;
34134;SDS011;20410;55.578;12.968;2022-07-03T08:02:16;4.32;;;2.90;;
34134;SDS011;20410;55.578;12.968;2022-07-03T08:05:00;4.18;;;2.67;;
34134;SDS011;20410;55.578;12.968;2022-07-03T08:07:44;6.55;;;3.05;;
34134;SDS011;20410;55.578;12.968;2022-07-03T08:10:10;2.60;;;2.40;;
34134;SDS011;20410;55.578;12.968;2022-07-03T08:12:35;5.18;;;2.90;;
34134;SDS011;20410;55.578;12.968;2022-07-03T08:15:01;3.08;;;2.60;;
34134;SDS011;20410;55.578;12.968;2022-07-03T08:17:26;5.30;;;2.95;;
34134;SDS011;20410;55.578;12.968;2022-07-03T08:19:52;5.57;;;2.75;;
34134;SDS011;20410;55.578;12.968;2022-07-03T08:22:18;4.47;;;2.70;;
34134;SDS011;20410;55.578;12.968;2022-07-03T08:24:43;3.63;;;2.80;;
34134;SDS011;20410;55.578;12.968;2022-07-03T08:27:09;3.67;;;2.58;;
34134;SDS011;20410;55.578;12.968;2022-07-03T08:29:34;4.03;;;2.60;;
34134;SDS011;20410;55.578;12.968;2022-07-03T08:32:00;3.97;;;2.70;;
34134;SDS011;20410;55.578;12.968;2022-07-03T08:34:25;3.70;;;2.60;;
34134;SDS011;20410;55.578;12.968;2022-07-03T08:36:51;5.18;;;3.00;;
34134;SDS011;20410;55.578;12.968;2022-07-03T08:39:17;4.80;;;2.80;;
34134;SDS011;20410;55.578;12.968;2022-07-03T08:41:42;5.60;;;2.83;;
34134;SDS011;20410;55.578;12.968;2022-07-03T08:44:08;4.80;;;2.75;;
34134;SDS011;20410;55.578;12.968;2022-07-03T08:46:36;4.32;;;2.90;;
34134;SDS011;20410;55.578;12.968;2022-07-03T08:49:03;3.58;;;2.40;;
34134;SDS011;20410;55.578;12.968;2022-07-03T08:51:30;4.65;;;2.33;;
34134;SDS011;20410;55.578;12.968;2022-07-03T08:53:56;3.42;;;2.40;;
34134;SDS011;20410;55.578;12.968;2022-07-03T08:56:25;5.43;;;2.65;;
34134;SDS011;20410;55.578;12.968;2022-07-03T08:58:51;3.90;;;2.70;;
34134;SDS011;20410;55.578;12.968;2022-07-03T09:01:17;4.07;;;2.95;;
34134;SDS011;20410;55.578;12.968;2022-07-03T09:03:43;3.45;;;2.50;;
34134;SDS011;20410;55.578;12.968;2022-07-03T09:06:13;4.43;;;2.70;;
34134;SDS011;20410;55.578;12.968;2022-07-03T09:08:39;4.75;;;3.00;;
34134;SDS011;20410;55.578;12.968;2022-07-03T09:11:05;4.88;;;3.08;;
34134;SDS011;20410;55.578;12.968;2022-07-03T09:13:31;3.83;;;2.90;;
34134;SDS011;20410;55.578;12.968;2022-07-03T09:15:57;4.47;;;2.70;;
34134;SDS011;20410;55.578;12.968;2022-07-03T09:18:41;4.30;;;2.65;;
34134;SDS011;20410;55.578;12.968;2022-07-03T09:21:09;7.93;;;2.78;;
34134;SDS011;20410;55.578;12.968;2022-07-03T09:23:35;3.08;;;2.55;;
34134;SDS011;20410;55.578;12.968;2022-07-03T09:26:05;5.35;;;2.58;;
34134;SDS011;20410;55.578;12.968;2022-07-03T09:28:51;3.78;;;2.65;;
34134;SDS011;20410;55.578;12.968;2022-07-03T09:31:21;4.72;;;2.70;;
34134;SDS011;20410;55.578;12.968;2022-07-03T09:36:23;4.88;;;2.40;;
34134;SDS011;20410;55.578;12.968;2022-07-03T09:39:10;5.47;;;2.80;;
34134;SDS011;20410;55.578;12.968;2022-07-03T09:41:50;5.75;;;2.88;;
34134;SDS011;20410;55.578;12.968;2022-07-03T09:44:36;3.28;;;2.72;;
34134;SDS011;20410;55.578;12.968;2022-07-03T09:47:10;3.38;;;2.63;;
34134;SDS011;20410;55.578;12.968;2022-07-03T09:49:44;5.72;;;2.90;;
34134;SDS011;20410;55.578;12.968;2022-07-03T09:54:50;8.75;;;2.75;;
34134;SDS011;20410;55.578;12.968;2022-07-03T09:57:16;5.97;;;2.95;;
34134;SDS011;20410;55.578;12.968;2022-07-03T09:59:43;3.67;;;2.63;;
34134;SDS011;20410;55.578;12.968;2022-07-03T10:02:08;4.68;;;2.63;;
34134;SDS011;20410;55.578;12.968;2022-07-03T10:04:34;5.45;;;2.40;;
34134;SDS011;20410;55.578;12.968;2022-07-03T10:07:00;3.53;;;2.40;;
34134;SDS011;20410;55.578;12.968;2022-07-03T10:09:27;3.13;;;2.70;;
34134;SDS011;20410;55.578;12.968;2022-07-03T10:11:55;3.75;;;2.60;;
34134;SDS011;20410;55.578;12.968;2022-07-03T10:14:22;3.28;;;2.60;;
34134;SDS011;20410;55.578;12.968;2022-07-03T10:16:49;4.25;;;2.40;;
34134;SDS011;20410;55.578;12.968;2022-07-03T10:19:17;4.53;;;2.63;;
34134;SDS011;20410;55.578;12.968;2022-07-03T10:21:46;4.90;;;2.50;;
34134;SDS011;20410;55.578;12.968;2022-07-03T10:24:16;4.82;;;2.55;;
34134;SDS011;20410;55.578;12.968;2022-07-03T10:26:42;4.47;;;2.30;;
34134;SDS011;20410;55.578;12.968;2022-07-03T10:29:09;2.90;;;2.25;;
34134;SDS011;20410;55.578;12.968;2022-07-03T10:31:36;4.65;;;2.60;;
34134;SDS011;20410;55.578;12.968;2022-07-03T10:34:04;2.97;;;2.35;;
34134;SDS011;20410;55.578;12.968;2022-07-03T10:36:30;3.55;;;2.38;;
34134;SDS011;20410;55.578;12.968;2022-07-03T10:38:58;3.08;;;2.40;;
34134;SDS011;20410;55.578;12.968;2022-07-03T10:41:36;2.72;;;2.30;;
34134;SDS011;20410;55.578;12.968;2022-07-03T10:44:27;3.25;;;2.40;;
34134;SDS011;20410;55.578;12.968;2022-07-03T10:50:12;4.50;;;2.10;;
34134;SDS011;20410;55.578;12.968;2022-07-03T10:52:46;5.25;;;2.50;;
34134;SDS011;20410;55.578;12.968;2022-07-03T10:55:13;5.15;;;2.78;;
34134;SDS011;20410;55.578;12.968;2022-07-03T10:57:40;4.88;;;2.30;;
34134;SDS011;20410;55.578;12.968;2022-07-03T11:00:28;5.72;;;2.60;;
34134;SDS011;20410;55.578;12.968;2022-07-03T11:02:54;4.25;;;2.60;;
34134;SDS011;20410;55.578;12.968;2022-07-03T11:05:21;3.22;;;2.50;;
34134;SDS011;20410;55.578;12.968;2022-07-03T11:08:03;4.88;;;2.60;;
34134;SDS011;20410;55.578;12.968;2022-07-03T11:10:31;3.40;;;2.50;;
34134;SDS011;20410;55.578;12.968;2022-07-03T11:15:32;2.90;;;2.60;;
34134;SDS011;20410;55.578;12.968;2022-07-03T11:20:33;3.88;;;2.25;;
34134;SDS011;20410;55.578;12.968;2022-07-03T11:25:43;7.40;;;2.45;;
34134;SDS011;20410;55.578;12.968;2022-07-03T11:36:29;3.78;;;2.25;;
34134;SDS011;20410;55.578;12.968;2022-07-03T11:41:26;3.00;;;2.13;;
34134;SDS011;20410;55.578;12.968;2022-07-03T11:43:54;4.60;;;2.28;;
34134;SDS011;20410;55.578;12.968;2022-07-03T11:46:23;3.97;;;2.45;;
34134;SDS011;20410;55.578;12.968;2022-07-03T11:48:50;4.60;;;2.25;;
34134;SDS011;20410;55.578;12.968;2022-07-03T11:51:30;3.60;;;2.22;;
34134;SDS011;20410;55.578;12.968;2022-07-03T11:53:55;2.42;;;2.20;;
34134;SDS011;20410;55.578;12.968;2022-07-03T11:56:21;3.65;;;2.25;;
34134;SDS011;20410;55.578;12.968;2022-07-03T11:58:51;3.08;;;2.10;;
34134;SDS011;20410;55.578;12.968;2022-07-03T12:04:03;2.88;;;2.03;;
34134;SDS011;20410;55.578;12.968;2022-07-03T12:07:04;2.20;;;1.85;;
34134;SDS011;20410;55.578;12.968;2022-07-03T12:09:33;3.47;;;1.98;;
34134;SDS011;20410;55.578;12.968;2022-07-03T12:12:06;2.60;;;1.88;;
34134;SDS011;20410;55.578;12.968;2022-07-03T12:14:37;2.85;;;1.73;;
34134;SDS011;20410;55.578;12.968;2022-07-03T12:17:03;5.97;;;1.80;;
34134;SDS011;20410;55.578;12.968;2022-07-03T12:19:30;4.28;;;1.90;;
34134;SDS011;20410;55.578;12.968;2022-07-03T12:21:55;2.33;;;1.85;;
34134;SDS011;20410;55.578;12.968;2022-07-03T12:24:21;2.30;;;1.80;;
34134;SDS011;20410;55.578;12.968;2022-07-03T12:26:47;2.92;;;1.90;;
34134;SDS011;20410;55.578;12.968;2022-07-03T12:29:13;3.42;;;2.05;;
34134;SDS011;20410;55.578;12.968;2022-07-03T12:31:47;1.65;;;1.55;;
34134;SDS011;20410;55.578;12.968;2022-07-03T12:34:14;2.58;;;1.70;;
34134;SDS011;20410;55.578;12.968;2022-07-03T12:36:55;3.13;;;1.83;;
34134;SDS011;20410;55.578;12.968;2022-07-03T12:39:20;2.72;;;1.70;;
34134;SDS011;20410;55.578;12.968;2022-07-03T12:41:46;5.50;;;2.00;;
34134;SDS011;20410;55.578;12.968;2022-07-03T12:44:11;2.65;;;1.73;;
34134;SDS011;20410;55.578;12.968;2022-07-03T12:46:43;5.88;;;2.10;;
34134;SDS011;20410;55.578;12.968;2022-07-03T12:49:09;3.58;;;1.75;;
34134;SDS011;20410;55.578;12.968;2022-07-03T12:51:39;3.28;;;1.98;;
34134;SDS011;20410;55.578;12.968;2022-07-03T12:54:13;3.50;;;1.70;;
34134;SDS011;20410;55.578;12.968;2022-07-03T12:56:40;3.75;;;2.10;;
34134;SDS011;20410;55.578;12.968;2022-07-03T12:59:07;3.75;;;1.90;;
34134;SDS011;20410;55.578;12.968;2022-07-03T13:02:02;5.32;;;2.20;;
34134;SDS011;20410;55.578;12.968;2022-07-03T13:04:29;4.75;;;1.90;;
34134;SDS011;20410;55.578;12.968;2022-07-03T13:07:00;6.18;;;2.20;;
34134;SDS011;20410;55.578;12.968;2022-07-03T13:09:27;3.83;;;1.70;;
34134;SDS011;20410;55.578;12.968;2022-07-03T13:11:52;2.95;;;2.10;;
34134;SDS011;20410;55.578;12.968;2022-07-03T13:14:18;3.80;;;2.10;;
34134;SDS011;20410;55.578;12.968;2022-07-03T13:19:14;5.07;;;2.47;;
34134;SDS011;20410;55.578;12.968;2022-07-03T13:21:44;5.85;;;2.67;;
34134;SDS011;20410;55.578;12.968;2022-07-03T13:24:11;4.13;;;2.20;;
34134;SDS011;20410;55.578;12.968;2022-07-03T13:26:38;3.90;;;2.42;;
34134;SDS011;20410;55.578;12.968;2022-07-03T13:29:04;4.25;;;2.42;;
34134;SDS011;20410;55.578;12.968;2022-07-03T13:31:30;7.22;;;2.42;;
34134;SDS011;20410;55.578;12.968;2022-07-03T13:33:56;2.95;;;2.17;;
34134;SDS011;20410;55.578;12.968;2022-07-03T13:36:23;3.75;;;2.47;;
34134;SDS011;20410;55.578;12.968;2022-07-03T13:38:53;3.10;;;2.13;;
34134;SDS011;20410;55.578;12.968;2022-07-03T13:41:19;3.25;;;2.22;;
34134;SDS011;20410;55.578;12.968;2022-07-03T13:43:47;3.45;;;2.20;;
34134;SDS011;20410;55.578;12.968;2022-07-03T13:46:16;4.05;;;2.40;;
34134;SDS011;20410;55.578;12.968;2022-07-03T13:48:43;3.75;;;2.33;;
34134;SDS011;20410;55.578;12.968;2022-07-03T13:51:08;4.32;;;2.45;;
34134;SDS011;20410;55.578;12.968;2022-07-03T13:53:34;3.67;;;2.45;;
34134;SDS011;20410;55.578;12.968;2022-07-03T13:56:00;4.07;;;2.40;;
34134;SDS011;20410;55.578;12.968;2022-07-03T13:58:26;4.78;;;2.50;;
34134;SDS011;20410;55.578;12.968;2022-07-03T14:00:52;2.90;;;2.30;;
34134;SDS011;20410;55.578;12.968;2022-07-03T14:03:18;4.97;;;2.40;;
34134;SDS011;20410;55.578;12.968;2022-07-03T14:05:44;2.78;;;2.10;;
34134;SDS011;20410;55.578;12.968;2022-07-03T14:08:10;2.88;;;2.30;;
34134;SDS011;20410;55.578;12.968;2022-07-03T14:10:36;5.38;;;2.47;;
34134;SDS011;20410;55.578;12.968;2022-07-03T14:13:02;4.47;;;2.30;;
34134;SDS011;20410;55.578;12.968;2022-07-03T14:15:28;4.35;;;2.13;;
34134;SDS011;20410;55.578;12.968;2022-07-03T14:17:54;3.60;;;2.50;;
34134;SDS011;20410;55.578;12.968;2022-07-03T14:20:19;2.88;;;2.35;;
34134;SDS011;20410;55.578;12.968;2022-07-03T14:22:45;5.78;;;2.40;;
34134;SDS011;20410;55.578;12.968;2022-07-03T14:25:11;3.60;;;2.50;;
34134;SDS011;20410;55.578;12.968;2022-07-03T14:27:36;3.30;;;2.28;;
34134;SDS011;20410;55.578;12.968;2022-07-03T14:30:20;4.25;;;2.50;;
34134;SDS011;20410;55.578;12.968;2022-07-03T14:33:04;4.97;;;2.40;;
34134;SDS011;20410;55.578;12.968;2022-07-03T14:35:30;2.60;;;2.40;;
34134;SDS011;20410;55.578;12.968;2022-07-03T14:37:56;3.38;;;2.60;;
34134;SDS011;20410;55.578;12.968;2022-07-03T14:40:22;5.05;;;2.20;;
34134;SDS011;20410;55.578;12.968;2022-07-03T14:42:48;4.95;;;2.60;;
34134;SDS011;20410;55.578;12.968;2022-07-03T14:45:13;3.78;;;2.42;;
34134;SDS011;20410;55.578;12.968;2022-07-03T14:47:39;3.38;;;2.50;;
34134;SDS011;20410;55.578;12.968;2022-07-03T14:50:04;2.65;;;2.22;;
34134;SDS011;20410;55.578;12.968;2022-07-03T14:52:30;3.97;;;2.50;;
34134;SDS011;20410;55.578;12.968;2022-07-03T14:54:56;3.70;;;2.70;;
34134;SDS011;20410;55.578;12.968;2022-07-03T14:57:26;6.00;;;2.70;;
34134;SDS011;20410;55.578;12.968;2022-07-03T15:05:13;5.25;;;2.80;;
34134;SDS011;20410;55.578;12.968;2022-07-03T15:07:57;4.68;;;2.60;;
34134;SDS011;20410;55.578;12.968;2022-07-03T15:10:24;5.80;;;2.40;;
34134;SDS011;20410;55.578;12.968;2022-07-03T15:12:51;5.43;;;2.25;;
34134;SDS011;20410;55.578;12.968;2022-07-03T15:15:19;4.80;;;2.45;;
34134;SDS011;20410;55.578;12.968;2022-07-03T15:17:49;3.05;;;2.35;;
34134;SDS011;20410;55.578;12.968;2022-07-03T15:20:16;3.25;;;2.08;;
34134;SDS011;20410;55.578;12.968;2022-07-03T15:22:44;3.50;;;2.38;;
34134;SDS011;20410;55.578;12.968;2022-07-03T15:25:12;5.10;;;2.70;;
34134;SDS011;20410;55.578;12.968;2022-07-03T15:27:40;5.40;;;2.78;;
34134;SDS011;20410;55.578;12.968;2022-07-03T15:30:07;5.82;;;2.72;;
34134;SDS011;20410;55.578;12.968;2022-07-03T15:32:36;4.70;;;2.50;;
34134;SDS011;20410;55.578;12.968;2022-07-03T15:35:02;4.00;;;2.10;;
34134;SDS011;20410;55.578;12.968;2022-07-03T15:43:06;4.13;;;2.38;;
34134;SDS011;20410;55.578;12.968;2022-07-03T15:54:04;2.60;;;2.10;;
34134;SDS011;20410;55.578;12.968;2022-07-03T15:56:35;2.88;;;2.20;;
34134;SDS011;20410;55.578;12.968;2022-07-03T15:59:05;4.57;;;1.98;;
34134;SDS011;20410;55.578;12.968;2022-07-03T16:01:39;2.72;;;2.10;;